createdAt,value
2023-05-02T00:01:28.955Z,101930.69
2023-05-02T00:03:58.211Z,101921.75
2023-05-02T00:06:26.584Z,101926.34
2023-05-02T00:08:54.470Z,101931.75
2023-05-02T00:11:22.983Z,101935.28
2023-05-02T00:13:50.774Z,101941.75
2023-05-02T00:16:18.960Z,101950.91
2023-05-02T00:18:46.881Z,101950.06
2023-05-02T00:21:16.064Z,101957.59
2023-05-02T00:23:43.843Z,101960.50
2023-05-02T00:26:11.694Z,101958.25
2023-05-02T00:28:40.337Z,101962.84
2023-05-02T00:31:08.213Z,101965.75
2023-05-02T00:33:35.928Z,101967.84
2023-05-02T00:36:03.653Z,101970.56
2023-05-02T00:38:32.738Z,101967.03
2023-05-02T00:41:00.511Z,101965.38
2023-05-02T00:43:31.653Z,101975.81
2023-05-02T00:45:59.752Z,101968.97
2023-05-02T00:48:27.999Z,101975.41
2023-05-02T00:50:57.302Z,101967.94
2023-05-02T00:53:25.066Z,101969.63
2023-05-02T00:55:54.360Z,101970.63
2023-05-02T00:58:22.128Z,101978.97
2023-05-02T01:01:04.340Z,101977.53
2023-05-02T01:03:53.154Z,101971.50
2023-05-02T01:06:41.112Z,101981.72
2023-05-02T01:09:27.448Z,101982.16
2023-05-02T01:12:04.147Z,101967.19
2023-05-02T01:14:35.808Z,101984.25
2023-05-02T01:17:08.232Z,101981.38
2023-05-02T01:19:37.659Z,101973.69
2023-05-02T01:22:09.441Z,101974.75
2023-05-02T01:24:43.918Z,101978.28
2023-05-02T01:27:20.935Z,101971.81
2023-05-02T01:29:52.402Z,101980.75
2023-05-02T01:32:23.520Z,101984.13
2023-05-02T01:34:54.281Z,101993.50
2023-05-02T01:37:24.972Z,101977.72
2023-05-02T01:39:55.323Z,101979.38
2023-05-02T01:42:24.792Z,101978.75
2023-05-02T01:44:56.379Z,101985.81
2023-05-02T01:47:25.482Z,101983.34
2023-05-02T01:49:53.660Z,101982.50
2023-05-02T01:52:24.671Z,101993.09
2023-05-02T01:54:54.945Z,101992.06
2023-05-02T01:57:22.890Z,101997.47
2023-05-02T01:59:53.767Z,101995.81
2023-05-02T02:02:23.725Z,101995.59
2023-05-02T02:04:54.427Z,101998.06
2023-05-02T02:07:22.405Z,102005.56
2023-05-02T02:09:50.597Z,102003.50
2023-05-02T02:12:25.574Z,102011.19
2023-05-02T02:14:58.790Z,102009.53
2023-05-02T02:17:31.144Z,102018.47
2023-05-02T02:20:04.422Z,102015.16
2023-05-02T02:22:36.907Z,102024.31
2023-05-02T02:25:06.712Z,102026.19
2023-05-02T02:27:34.587Z,102016.63
2023-05-02T02:30:04.664Z,102014.16
2023-05-02T02:32:32.474Z,102027.66
2023-05-02T02:35:00.872Z,102026.22
2023-05-02T02:37:33.682Z,102026.66
2023-05-02T02:40:09.319Z,102030.81
2023-05-02T02:42:44.771Z,102032.09
2023-05-02T02:45:26.199Z,102035.84
2023-05-02T02:48:04.019Z,102043.13
2023-05-02T02:50:34.072Z,102043.56
2023-05-02T02:53:03.996Z,102039.63
2023-05-02T02:55:41.654Z,102044.63
2023-05-02T02:58:21.127Z,102045.06
2023-05-02T03:00:50.848Z,102042.56
2023-05-02T03:03:21.547Z,102055.25
2023-05-02T03:05:50.170Z,102053.59
2023-05-02T03:08:17.981Z,102064.44
2023-05-02T03:10:45.676Z,102061.31
2023-05-02T03:13:13.352Z,102057.41
2023-05-02T03:16:20.522Z,102068.81
2023-05-02T03:18:48.262Z,102076.06
2023-05-02T03:21:15.974Z,102078.78
2023-05-02T03:23:43.666Z,102075.25
2023-05-02T03:26:11.736Z,102078.56
2023-05-02T03:28:39.477Z,102083.97
2023-05-02T03:31:08.564Z,102078.34
2023-05-02T03:33:36.300Z,102079.81
2023-05-02T03:36:04.112Z,102085.22
2023-05-02T03:38:32.521Z,102079.59
2023-05-02T03:41:00.264Z,102082.28
2023-05-02T03:43:27.951Z,102085.22
2023-05-02T03:45:55.687Z,102083.34
2023-05-02T03:48:25.054Z,102083.53
2023-05-02T03:50:52.784Z,102088.94
2023-05-02T03:53:20.480Z,102087.06
2023-05-02T03:55:48.204Z,102096.22
2023-05-02T03:58:16.913Z,102091.88
2023-05-02T04:00:44.646Z,102090.81
2023-05-02T04:03:12.442Z,102094.34
2023-05-02T04:05:41.526Z,102099.75
2023-05-02T04:08:09.823Z,102103.50
2023-05-02T04:10:37.581Z,102116.16
2023-05-02T04:13:05.626Z,102114.72
2023-05-02T04:15:33.478Z,102116.19
2023-05-02T04:18:01.635Z,102118.88
2023-05-02T04:20:30.668Z,102117.84
2023-05-02T04:22:59.742Z,102127.81
2023-05-02T04:25:27.461Z,102123.88
2023-05-02T04:27:55.206Z,102137.19
2023-05-02T04:30:22.956Z,102135.94
2023-05-02T04:32:50.964Z,102142.59
2023-05-02T04:35:18.890Z,102144.88
2023-05-02T04:37:46.616Z,102151.31
2023-05-02T04:40:16.111Z,102146.94
2023-05-02T04:42:43.872Z,102148.00
2023-05-02T04:45:11.825Z,102158.59
2023-05-02T04:47:40.137Z,102165.03
2023-05-02T04:50:09.396Z,102165.22
2023-05-02T04:52:37.129Z,102176.66
2023-05-02T04:55:05.510Z,102179.16
2023-05-02T04:57:34.572Z,102175.81
2023-05-02T05:00:02.499Z,102183.28
2023-05-02T05:02:30.517Z,102196.59
2023-05-02T05:04:58.457Z,102208.44
2023-05-02T05:07:26.406Z,102207.38
2023-05-02T05:09:54.131Z,102210.28
2023-05-02T05:12:21.852Z,102216.53
2023-05-02T05:14:51.006Z,102216.72
2023-05-02T05:17:18.656Z,102209.25
2023-05-02T05:19:46.413Z,102222.34
2023-05-02T05:22:14.192Z,102225.44
2023-05-02T05:24:41.912Z,102227.09
2023-05-02T05:27:09.703Z,102239.56
2023-05-02T05:29:37.398Z,102239.78
2023-05-02T05:32:07.057Z,102247.03
2023-05-02T05:34:34.836Z,102248.06
2023-05-02T05:37:02.639Z,102250.97
2023-05-02T05:39:30.742Z,102256.38
2023-05-02T05:41:59.035Z,102250.97
2023-05-02T05:44:26.758Z,102258.03
2023-05-02T05:46:54.736Z,102258.47
2023-05-02T05:49:24.300Z,102252.88
2023-05-02T05:51:52.243Z,102263.88
2023-05-02T05:54:19.954Z,102264.91
2023-05-02T05:56:47.686Z,102264.91
2023-05-02T05:59:15.584Z,102272.56
2023-05-02T06:01:43.816Z,102270.31
2023-05-02T06:04:11.713Z,102276.97
2023-05-02T06:06:40.898Z,102281.13
2023-05-02T06:09:09.171Z,102282.78
2023-05-02T06:11:38.072Z,102286.94
2023-05-02T06:14:05.752Z,102283.81
2023-05-02T06:16:33.582Z,102282.59
2023-05-02T06:19:01.454Z,102294.84
2023-05-02T06:21:29.172Z,102297.13
2023-05-02T06:23:58.283Z,102299.44
2023-05-02T06:26:26.085Z,102301.91
2023-05-02T06:28:55.648Z,102292.78
2023-05-02T06:31:23.460Z,102304.41
2023-05-02T06:33:52.256Z,102314.38
2023-05-02T06:36:19.940Z,102312.31
2023-05-02T06:38:47.648Z,102322.91
2023-05-02T06:41:18.332Z,102326.63
2023-05-02T06:43:46.244Z,102332.03
2023-05-02T06:46:14.049Z,102334.94
2023-05-02T06:48:41.833Z,102337.22
2023-05-02T06:51:09.562Z,102337.63
2023-05-02T06:53:37.241Z,102337.84
2023-05-02T06:56:05.997Z,102349.66
2023-05-02T06:58:35.141Z,102345.09
2023-05-02T07:01:02.930Z,102358.59
2023-05-02T07:03:30.897Z,102348.81
2023-05-02T07:05:58.754Z,102359.00
2023-05-02T07:08:26.550Z,102364.81
2023-05-02T07:10:54.308Z,102356.72
2023-05-02T07:13:22.046Z,102369.38
2023-05-02T07:15:51.201Z,102377.88
2023-05-02T07:18:18.984Z,102383.91
2023-05-02T07:20:46.814Z,102382.88
2023-05-02T07:23:14.613Z,102381.84
2023-05-02T07:25:42.558Z,102392.44
2023-05-02T07:28:10.356Z,102394.09
2023-05-02T07:30:38.040Z,102394.09
2023-05-02T07:33:07.553Z,102399.31
2023-05-02T07:35:35.423Z,102404.72
2023-05-02T07:38:03.198Z,102404.50
2023-05-02T07:40:31.012Z,102400.97
2023-05-02T07:42:59.337Z,102413.66
2023-05-02T07:45:27.077Z,102414.47
2023-05-02T07:47:54.835Z,102411.78
2023-05-02T07:50:24.522Z,102418.41
2023-05-02T07:52:52.379Z,102420.91
2023-05-02T07:55:20.286Z,102413.84
2023-05-02T07:57:48.050Z,102407.19
2023-05-02T08:00:16.806Z,102414.44
2023-05-02T08:02:45.451Z,102414.41
2023-05-02T08:05:13.640Z,102423.97
2023-05-02T08:07:42.876Z,102417.13
2023-05-02T08:10:11.709Z,102431.84
2023-05-02T08:12:40.283Z,102423.75
2023-05-02T08:15:09.234Z,102427.91
2023-05-02T08:17:37.151Z,102424.19
2023-05-02T08:20:05.598Z,102432.72
2023-05-02T08:22:33.344Z,102432.72
2023-05-02T08:25:02.448Z,102436.25
2023-05-02T08:27:30.253Z,102446.00
2023-05-02T08:29:59.414Z,102452.25
2023-05-02T08:32:30.059Z,102454.31
2023-05-02T08:34:58.045Z,102462.22
2023-05-02T08:37:25.866Z,102462.63
2023-05-02T08:39:53.634Z,102469.88
2023-05-02T08:42:23.496Z,102471.94
2023-05-02T08:44:51.505Z,102467.38
2023-05-02T08:47:21.709Z,102474.00
2023-05-02T08:49:51.143Z,102481.06
2023-05-02T08:52:21.375Z,102484.59
2023-05-02T08:54:51.548Z,102486.28
2023-05-02T08:57:19.312Z,102488.16
2023-05-02T08:59:48.688Z,102490.84
2023-05-02T09:02:28.744Z,102491.88
2023-05-02T09:05:02.668Z,102482.75
2023-05-02T09:07:30.812Z,102493.34
2023-05-02T09:09:59.353Z,102489.63
2023-05-02T09:12:27.678Z,102499.56
2023-05-02T09:15:12.554Z,102502.69
2023-05-02T09:17:44.583Z,102501.56
2023-05-02T09:20:13.644Z,102509.47
2023-05-02T09:22:50.064Z,102510.31
2023-05-02T09:25:18.168Z,102513.66
2023-05-02T09:27:53.708Z,102514.50
2023-05-02T09:30:25.132Z,102512.84
2023-05-02T09:32:55.413Z,102515.97
2023-05-02T09:35:26.464Z,102520.34
2023-05-02T09:37:55.362Z,102517.44
2023-05-02T09:40:24.228Z,102519.13
2023-05-02T09:42:52.506Z,102529.72
2023-05-02T09:45:26.069Z,102531.78
2023-05-02T09:47:54.694Z,102530.09
2023-05-02T09:50:34.784Z,102527.22
2023-05-02T09:53:04.434Z,102528.69
2023-05-02T09:55:32.367Z,102532.03
2023-05-02T09:58:00.891Z,102531.63
2023-05-02T10:00:44.536Z,102524.16
2023-05-02T10:03:16.365Z,102531.03
2023-05-02T10:05:46.736Z,102539.13
2023-05-02T10:08:15.423Z,102532.88
2023-05-02T10:10:48.441Z,102536.22
2023-05-02T10:13:20.737Z,102540.59
2023-05-02T10:15:55.112Z,102542.25
2023-05-02T10:18:28.762Z,102538.53
2023-05-02T10:21:00.670Z,102537.50
2023-05-02T10:23:29.707Z,102547.06
2023-05-02T10:26:00.369Z,102551.44
2023-05-02T10:28:28.915Z,102543.34
2023-05-02T10:31:01.316Z,102540.44
2023-05-02T10:33:31.502Z,102539.19
2023-05-02T10:35:59.610Z,102534.63
2023-05-02T10:38:27.739Z,102537.97
2023-05-02T10:40:59.744Z,102533.41
2023-05-02T10:43:35.048Z,102536.09
2023-05-02T10:46:04.988Z,102547.34
2023-05-02T10:48:32.838Z,102540.91
2023-05-02T10:51:01.845Z,102533.44
2023-05-02T10:53:31.896Z,102538.00
2023-05-02T10:56:18.082Z,102535.53
2023-05-02T10:58:47.145Z,102539.69
2023-05-02T11:01:43.313Z,102542.84
2023-05-02T11:04:11.888Z,102542.84
2023-05-02T11:07:13.103Z,102550.75
2023-05-02T11:09:40.843Z,102560.50
2023-05-02T11:12:08.635Z,102556.16
2023-05-02T11:14:50.775Z,102564.06
2023-05-02T11:17:21.020Z,102552.19
2023-05-02T11:20:27.633Z,102557.41
2023-05-02T11:23:00.824Z,102566.34
2023-05-02T11:25:40.093Z,102570.53
2023-05-02T11:28:10.360Z,102561.78
2023-05-02T11:30:48.179Z,102562.84
2023-05-02T11:33:20.057Z,102557.03
2023-05-02T11:35:49.349Z,102553.28
2023-05-02T11:38:19.968Z,102564.50
2023-05-02T11:40:52.238Z,102553.50
2023-05-02T11:43:22.271Z,102551.63
2023-05-02T11:45:50.444Z,102549.34
2023-05-02T11:48:22.145Z,102541.22
2023-05-02T11:50:51.235Z,102553.53
2023-05-02T11:53:23.343Z,102558.72
2023-05-02T11:55:52.321Z,102561.44
2023-05-02T11:58:22.620Z,102557.88
2023-05-02T12:00:51.659Z,102561.03
2023-05-02T12:03:29.824Z,102564.56
2023-05-02T12:05:58.668Z,102565.59
2023-05-02T12:08:28.122Z,102566.22
2023-05-02T12:10:57.410Z,102564.56
2023-05-02T12:13:26.819Z,102580.38
2023-05-02T12:15:55.944Z,102580.38
2023-05-02T12:18:27.517Z,102577.25
2023-05-02T12:20:57.171Z,102577.06
2023-05-02T12:23:27.315Z,102570.41
2023-05-02T12:25:55.110Z,102583.72
2023-05-02T12:28:24.062Z,102570.63
2023-05-02T12:30:52.715Z,102578.72
2023-05-02T12:33:20.750Z,102589.13
2023-05-02T12:35:50.405Z,102593.50
2023-05-02T12:38:20.604Z,102596.41
2023-05-02T12:40:50.110Z,102603.09
2023-05-02T12:43:17.947Z,102599.34
2023-05-02T12:45:45.923Z,102601.00
2023-05-02T12:48:21.890Z,102605.38
2023-05-02T12:50:51.333Z,102616.00
2023-05-02T12:53:19.314Z,102606.66
2023-05-02T12:55:47.813Z,102605.63
2023-05-02T12:58:15.508Z,102613.72
2023-05-02T13:00:45.594Z,102617.47
2023-05-02T13:03:15.013Z,102616.63
2023-05-02T13:05:42.849Z,102615.41
2023-05-02T13:08:11.937Z,102616.22
2023-05-02T13:10:39.648Z,102615.63
2023-05-02T13:13:07.822Z,102613.53
2023-05-02T13:15:35.543Z,102610.44
2023-05-02T13:18:03.647Z,102614.41
2023-05-02T13:20:31.470Z,102609.81
2023-05-02T13:22:59.229Z,102614.66
2023-05-02T13:25:28.395Z,102609.88
2023-05-02T13:27:56.105Z,102605.91
2023-05-02T13:30:23.837Z,102611.56
2023-05-02T13:32:51.686Z,102608.44
2023-05-02T13:35:19.671Z,102607.41
2023-05-02T13:37:47.968Z,102605.72
2023-05-02T13:40:15.833Z,102611.97
2023-05-02T13:42:44.890Z,102618.00
2023-05-02T13:45:12.992Z,102618.44
2023-05-02T13:47:41.552Z,102620.72
2023-05-02T13:50:10.105Z,102624.06
2023-05-02T13:52:37.857Z,102627.41
2023-05-02T13:55:06.312Z,102627.19
2023-05-02T13:57:34.099Z,102627.19
2023-05-02T14:00:04.877Z,102623.25
2023-05-02T14:02:32.909Z,102618.06
2023-05-02T14:05:00.766Z,102614.09
2023-05-02T14:07:28.564Z,102620.34
2023-05-02T14:09:56.278Z,102612.81
2023-05-02T14:12:24.021Z,102605.28
2023-05-02T14:14:51.889Z,102616.06
2023-05-02T14:17:21.401Z,102607.22
2023-05-02T14:19:49.141Z,102606.50
2023-05-02T14:22:16.915Z,102605.03
2023-05-02T14:24:44.640Z,102603.81
2023-05-02T14:27:17.844Z,102603.22
2023-05-02T14:29:46.352Z,102609.13
2023-05-02T14:32:14.361Z,102608.75
2023-05-02T14:34:43.552Z,102612.34
2023-05-02T14:37:11.346Z,102609.84
2023-05-02T14:39:40.197Z,102605.06
2023-05-02T14:42:07.975Z,102598.44
2023-05-02T14:44:35.691Z,102603.44
2023-05-02T14:47:03.631Z,102613.66
2023-05-02T14:49:31.377Z,102606.97
2023-05-02T14:52:00.443Z,102605.31
2023-05-02T14:54:28.484Z,102610.94
2023-05-02T14:56:56.898Z,102601.97
2023-05-02T14:59:24.988Z,102589.47
2023-05-02T15:01:52.925Z,102589.06
2023-05-02T15:04:20.876Z,102590.50
2023-05-02T15:06:49.067Z,102589.25
2023-05-02T15:09:19.055Z,102599.47
2023-05-02T15:11:46.789Z,102595.31
2023-05-02T15:14:14.524Z,102601.78
2023-05-02T15:16:42.373Z,102602.81
2023-05-02T15:19:10.307Z,102602.81
2023-05-02T15:21:38.063Z,102599.28
2023-05-02T15:24:06.399Z,102603.88
2023-05-02T15:26:35.805Z,102597.41
2023-05-02T15:29:03.568Z,102595.75
2023-05-02T15:31:31.571Z,102608.66
2023-05-02T15:33:59.319Z,102604.28
2023-05-02T15:36:27.968Z,102607.22
2023-05-02T15:38:55.724Z,102611.78
2023-05-02T15:41:25.726Z,102610.13
2023-05-02T15:43:54.870Z,102608.25
2023-05-02T15:46:22.725Z,102611.78
2023-05-02T15:48:50.802Z,102599.72
2023-05-02T15:51:18.644Z,102605.53
2023-05-02T15:53:49.805Z,102610.97
2023-05-02T15:56:17.545Z,102616.38
2023-05-02T15:58:45.265Z,102610.97
2023-05-02T16:01:14.315Z,102614.50
2023-05-02T16:03:42.283Z,102619.09
2023-05-02T16:06:10.382Z,102612.22
2023-05-02T16:08:38.184Z,102611.81
2023-05-02T16:11:05.926Z,102615.97
2023-05-02T16:13:33.694Z,102614.72
2023-05-02T16:16:01.526Z,102617.66
2023-05-02T16:18:31.212Z,102623.47
2023-05-02T16:20:59.473Z,102621.59
2023-05-02T16:23:27.473Z,102620.78
2023-05-02T16:25:58.736Z,102625.34
2023-05-02T16:28:26.499Z,102622.66
2023-05-02T16:30:54.375Z,102618.06
2023-05-02T16:33:22.660Z,102622.66
2023-05-02T16:36:01.207Z,102634.31
2023-05-02T16:38:28.961Z,102627.44
2023-05-02T16:40:57.369Z,102630.16
2023-05-02T16:43:25.380Z,102630.34
2023-05-02T16:46:01.076Z,102625.97
2023-05-02T16:48:29.083Z,102627.84
2023-05-02T16:50:58.295Z,102637.03
2023-05-02T16:53:26.629Z,102636.19
2023-05-02T16:55:55.248Z,102639.94
2023-05-02T16:58:25.059Z,102632.84
2023-05-02T17:00:52.817Z,102638.25
2023-05-02T17:03:20.838Z,102636.59
2023-05-02T17:05:48.626Z,102634.94
2023-05-02T17:08:17.906Z,102641.38
2023-05-02T17:10:49.500Z,102640.56
2023-05-02T17:13:17.275Z,102635.34
2023-05-02T17:15:45.105Z,102646.19
2023-05-02T17:18:12.869Z,102643.69
2023-05-02T17:20:41.150Z,102645.75
2023-05-02T17:23:08.983Z,102656.78
2023-05-02T17:25:38.293Z,102653.47
2023-05-02T17:28:06.052Z,102643.66
2023-05-02T17:30:33.974Z,102649.09
2023-05-02T17:33:01.707Z,102648.47
2023-05-02T17:35:29.582Z,102650.53
2023-05-02T17:37:57.298Z,102646.78
2023-05-02T17:40:25.480Z,102646.78
2023-05-02T17:42:55.369Z,102641.38
2023-05-02T17:45:23.216Z,102645.53
2023-05-02T17:47:51.093Z,102652.63
2023-05-02T17:50:18.874Z,102645.34
2023-05-02T17:52:46.733Z,102648.03
2023-05-02T17:55:14.605Z,102650.75
2023-05-02T17:57:42.390Z,102652.84
2023-05-02T18:00:12.773Z,102650.97
2023-05-02T18:02:40.805Z,102655.53
2023-05-02T18:05:09.595Z,102663.66
2023-05-02T18:07:37.372Z,102663.88
2023-05-02T18:10:06.718Z,102664.06
2023-05-02T18:12:34.555Z,102670.53
2023-05-02T18:15:05.420Z,102666.97
2023-05-02T18:17:35.030Z,102664.47
2023-05-02T18:20:04.344Z,102662.59
2023-05-02T18:22:33.563Z,102658.25
2023-05-02T18:25:01.868Z,102667.41
2023-05-02T18:27:29.816Z,102670.31
2023-05-02T18:29:57.616Z,102671.34
2023-05-02T18:32:26.070Z,102683.22
2023-05-02T18:34:55.325Z,102678.00
2023-05-02T18:37:30.889Z,102677.59
2023-05-02T18:39:58.774Z,102685.69
2023-05-02T18:42:26.566Z,102678.63
2023-05-02T18:44:54.290Z,102681.53
2023-05-02T18:47:24.433Z,102688.81
2023-05-02T18:49:56.260Z,102697.97
2023-05-02T18:52:25.730Z,102693.81
2023-05-02T18:54:53.508Z,102693.16
2023-05-02T18:57:21.559Z,102696.09
2023-05-02T18:59:49.276Z,102702.53
2023-05-02T19:02:17.005Z,102696.28
2023-05-02T19:04:44.864Z,102701.91
2023-05-02T19:07:12.607Z,102707.50
2023-05-02T19:09:42.109Z,102700.63
2023-05-02T19:12:09.891Z,102708.13
2023-05-02T19:14:39.577Z,102714.16
2023-05-02T19:17:07.348Z,102714.34
2023-05-02T19:19:35.276Z,102714.53
2023-05-02T19:22:03.130Z,102719.53
2023-05-02T19:24:30.893Z,102722.88
2023-05-02T19:27:00.456Z,102718.50
2023-05-02T19:29:28.369Z,102719.72
2023-05-02T19:31:56.078Z,102723.28
2023-05-02T19:34:23.892Z,102722.44
2023-05-02T19:36:51.571Z,102729.88
2023-05-02T19:39:19.265Z,102729.06
2023-05-02T19:41:48.088Z,102728.22
2023-05-02T19:44:18.079Z,102724.88
2023-05-02T19:46:46.154Z,102731.31
2023-05-02T19:49:13.855Z,102726.09
2023-05-02T19:51:42.015Z,102718.19
2023-05-02T19:54:09.736Z,102729.22
2023-05-02T19:56:37.415Z,102731.28
2023-05-02T19:59:05.086Z,102731.69
2023-05-02T20:01:34.238Z,102740.84
2023-05-02T20:04:02.172Z,102744.56
2023-05-02T20:06:31.571Z,102747.47
2023-05-02T20:08:59.338Z,102757.88
2023-05-02T20:11:27.157Z,102756.19
2023-05-02T20:13:55.380Z,102759.09
2023-05-02T20:16:23.179Z,102757.63
2023-05-02T20:18:52.894Z,102765.94
2023-05-02T20:21:20.792Z,102758.03
2023-05-02T20:23:48.481Z,102765.50
2023-05-02T20:26:17.838Z,102764.03
2023-05-02T20:28:45.566Z,102772.53
2023-05-02T20:31:13.349Z,102769.19
2023-05-02T20:33:45.426Z,102769.59
2023-05-02T20:36:15.789Z,102774.34
2023-05-02T20:38:44.557Z,102769.13
2023-05-02T20:41:14.056Z,102766.84
2023-05-02T20:43:44.547Z,102775.97
2023-05-02T20:46:12.970Z,102780.53
2023-05-02T20:48:40.750Z,102778.03
2023-05-02T20:51:08.734Z,102782.59
2023-05-02T20:53:38.190Z,102790.09
2023-05-02T20:56:08.810Z,102798.22
2023-05-02T20:58:36.483Z,102799.44
2023-05-02T21:01:04.278Z,102795.25
2023-05-02T21:03:32.192Z,102789.22
2023-05-02T21:06:00.433Z,102791.09
2023-05-02T21:08:28.256Z,102785.22
2023-05-02T21:10:57.308Z,102796.25
2023-05-02T21:13:25.026Z,102803.50
2023-05-02T21:15:52.800Z,102795.59
2023-05-02T21:18:21.700Z,102797.84
2023-05-02T21:20:49.889Z,102801.41
2023-05-02T21:23:17.622Z,102806.81
2023-05-02T21:25:45.388Z,102808.66
2023-05-02T21:28:14.586Z,102803.25
2023-05-02T21:30:42.368Z,102807.19
2023-05-02T21:33:10.482Z,102808.03
2023-05-02T21:35:38.176Z,102810.09
2023-05-02T21:38:05.853Z,102806.53
2023-05-02T21:40:35.477Z,102811.94
2023-05-02T21:43:03.224Z,102810.28
2023-05-02T21:45:32.755Z,102790.22
2023-05-02T21:48:01.306Z,102802.56
2023-05-02T21:50:29.427Z,102798.19
2023-05-02T21:52:57.162Z,102792.13
2023-05-02T21:55:24.965Z,102795.03
2023-05-02T21:57:52.655Z,102806.03
2023-05-02T22:00:20.621Z,102804.38
2023-05-02T22:02:49.751Z,102801.22
2023-05-02T22:05:18.041Z,102804.09
2023-05-02T22:07:47.628Z,102800.56
2023-05-02T22:10:15.382Z,102796.19
2023-05-02T22:12:43.076Z,102790.16
2023-05-02T22:15:12.871Z,102791.38
2023-05-02T22:17:43.253Z,102794.06
2023-05-02T22:20:14.207Z,102795.94
2023-05-02T22:22:42.154Z,102794.25
2023-05-02T22:25:10.277Z,102794.66
2023-05-02T22:27:38.010Z,102792.78
2023-05-02T22:30:07.439Z,102794.84
2023-05-02T22:32:35.210Z,102794.19
2023-05-02T22:35:03.446Z,102787.97
2023-05-02T22:37:32.535Z,102788.34
2023-05-02T22:40:00.601Z,102794.78
2023-05-02T22:42:28.518Z,102786.88
2023-05-02T22:44:56.189Z,102785.19
2023-05-02T22:47:23.934Z,102786.22
2023-05-02T22:49:52.609Z,102789.13
2023-05-02T22:52:20.863Z,102787.44
2023-05-02T22:54:50.070Z,102787.63
2023-05-02T22:57:17.754Z,102788.66
2023-05-02T22:59:45.524Z,102791.38
2023-05-02T23:02:13.405Z,102791.56
2023-05-02T23:04:41.298Z,102786.34
2023-05-02T23:07:08.996Z,102790.03
2023-05-02T23:09:36.839Z,102788.38
2023-05-02T23:12:06.655Z,102790.44
2023-05-02T23:14:34.378Z,102789.78
2023-05-02T23:17:02.487Z,102800.56
2023-05-02T23:19:30.918Z,102799.94
2023-05-02T23:21:59.320Z,102797.41
2023-05-02T23:24:27.955Z,102793.06
2023-05-02T23:26:55.795Z,102800.31
2023-05-02T23:29:24.984Z,102795.09
2023-05-02T23:31:54.320Z,102796.31
2023-05-02T23:34:22.784Z,102789.25
2023-05-02T23:36:52.624Z,102798.38
2023-05-02T23:39:20.435Z,102797.72
2023-05-02T23:41:48.301Z,102795.22
2023-05-02T23:44:16.025Z,102794.56
2023-05-02T23:46:45.141Z,102802.84
2023-05-02T23:49:12.945Z,102798.50
2023-05-02T23:51:40.628Z,102794.31
2023-05-02T23:54:08.625Z,102795.34
2023-05-02T23:56:36.330Z,102796.34
2023-05-02T23:59:04.071Z,102800.28
